sensor_id;sensor_type;location;lat;lon;timestamp;P1;durP1;ratioP1;P2;durP2;ratioP2
7128;SDS011;3606;52.930;8.644;2022-08-07T00:00:59;16.97;;;10.90;;
7128;SDS011;3606;52.930;8.644;2022-08-07T00:03:25;16.10;;;10.00;;
7128;SDS011;3606;52.930;8.644;2022-08-07T00:05:52;14.33;;;11.07;;
7128;SDS011;3606;52.930;8.644;2022-08-07T00:08:19;19.17;;;11.70;;
7128;SDS011;3606;52.930;8.644;2022-08-07T00:10:46;20.40;;;11.47;;
7128;SDS011;3606;52.930;8.644;2022-08-07T00:13:12;16.80;;;11.87;;
7128;SDS011;3606;52.930;8.644;2022-08-07T00:15:38;15.03;;;11.00;;
7128;SDS011;3606;52.930;8.644;2022-08-07T00:18:04;18.73;;;11.60;;
7128;SDS011;3606;52.930;8.644;2022-08-07T00:20:30;14.80;;;11.50;;
7128;SDS011;3606;52.930;8.644;2022-08-07T00:22:56;14.93;;;10.90;;
7128;SDS011;3606;52.930;8.644;2022-08-07T00:25:21;19.53;;;11.20;;
7128;SDS011;3606;52.930;8.644;2022-08-07T00:27:48;15.57;;;11.13;;
7128;SDS011;3606;52.930;8.644;2022-08-07T00:30:14;16.23;;;11.43;;
7128;SDS011;3606;52.930;8.644;2022-08-07T00:32:40;16.73;;;11.97;;
7128;SDS011;3606;52.930;8.644;2022-08-07T00:35:06;18.23;;;11.93;;
7128;SDS011;3606;52.930;8.644;2022-08-07T00:37:32;20.77;;;12.43;;
7128;SDS011;3606;52.930;8.644;2022-08-07T00:39:57;18.47;;;12.10;;
7128;SDS011;3606;52.930;8.644;2022-08-07T00:42:23;20.03;;;12.00;;
7128;SDS011;3606;52.930;8.644;2022-08-07T00:44:48;14.53;;;10.90;;
7128;SDS011;3606;52.930;8.644;2022-08-07T00:47:14;17.30;;;11.03;;
7128;SDS011;3606;52.930;8.644;2022-08-07T00:49:40;18.63;;;11.03;;
7128;SDS011;3606;52.930;8.644;2022-08-07T00:52:06;15.47;;;11.33;;
7128;SDS011;3606;52.930;8.644;2022-08-07T00:54:32;14.77;;;10.70;;
7128;SDS011;3606;52.930;8.644;2022-08-07T00:56:58;16.87;;;11.23;;
7128;SDS011;3606;52.930;8.644;2022-08-07T00:59:24;16.00;;;10.70;;
7128;SDS011;3606;52.930;8.644;2022-08-07T01:01:49;16.57;;;10.17;;
7128;SDS011;3606;52.930;8.644;2022-08-07T01:04:15;16.23;;;10.60;;
7128;SDS011;3606;52.930;8.644;2022-08-07T01:06:43;15.23;;;10.50;;
7128;SDS011;3606;52.930;8.644;2022-08-07T01:09:09;14.87;;;10.67;;
7128;SDS011;3606;52.930;8.644;2022-08-07T01:11:34;16.67;;;10.60;;
7128;SDS011;3606;52.930;8.644;2022-08-07T01:14:01;15.50;;;10.30;;
7128;SDS011;3606;52.930;8.644;2022-08-07T01:16:27;16.80;;;10.57;;
7128;SDS011;3606;52.930;8.644;2022-08-07T01:18:53;13.40;;;9.97;;
7128;SDS011;3606;52.930;8.644;2022-08-07T01:21:19;14.93;;;9.80;;
7128;SDS011;3606;52.930;8.644;2022-08-07T01:23:48;15.20;;;10.63;;
7128;SDS011;3606;52.930;8.644;2022-08-07T01:26:15;14.37;;;10.33;;
7128;SDS011;3606;52.930;8.644;2022-08-07T01:28:42;14.43;;;9.87;;
7128;SDS011;3606;52.930;8.644;2022-08-07T01:31:09;14.67;;;10.60;;
7128;SDS011;3606;52.930;8.644;2022-08-07T01:33:35;16.07;;;9.83;;
7128;SDS011;3606;52.930;8.644;2022-08-07T01:36:01;16.40;;;10.27;;
7128;SDS011;3606;52.930;8.644;2022-08-07T01:38:28;13.33;;;10.57;;
7128;SDS011;3606;52.930;8.644;2022-08-07T01:40:56;15.57;;;9.13;;
7128;SDS011;3606;52.930;8.644;2022-08-07T01:43:23;16.53;;;10.07;;
7128;SDS011;3606;52.930;8.644;2022-08-07T01:45:50;16.17;;;10.97;;
7128;SDS011;3606;52.930;8.644;2022-08-07T01:48:16;14.83;;;10.63;;
7128;SDS011;3606;52.930;8.644;2022-08-07T01:50:43;16.37;;;11.40;;
7128;SDS011;3606;52.930;8.644;2022-08-07T01:53:13;14.53;;;10.63;;
7128;SDS011;3606;52.930;8.644;2022-08-07T01:55:49;14.23;;;10.63;;
7128;SDS011;3606;52.930;8.644;2022-08-07T01:58:17;17.37;;;11.47;;
7128;SDS011;3606;52.930;8.644;2022-08-07T02:00:45;15.10;;;10.93;;
7128;SDS011;3606;52.930;8.644;2022-08-07T02:03:17;15.30;;;10.17;;
7128;SDS011;3606;52.930;8.644;2022-08-07T02:05:46;15.53;;;10.13;;
7128;SDS011;3606;52.930;8.644;2022-08-07T02:08:18;12.03;;;9.87;;
7128;SDS011;3606;52.930;8.644;2022-08-07T02:10:47;16.00;;;10.13;;
7128;SDS011;3606;52.930;8.644;2022-08-07T02:13:16;15.10;;;10.13;;
7128;SDS011;3606;52.930;8.644;2022-08-07T02:15:47;14.20;;;9.47;;
7128;SDS011;3606;52.930;8.644;2022-08-07T02:18:14;14.20;;;10.33;;
7128;SDS011;3606;52.930;8.644;2022-08-07T02:20:41;16.00;;;10.30;;
7128;SDS011;3606;52.930;8.644;2022-08-07T02:23:07;13.43;;;10.00;;
7128;SDS011;3606;52.930;8.644;2022-08-07T02:25:36;15.57;;;10.30;;
7128;SDS011;3606;52.930;8.644;2022-08-07T02:28:03;14.87;;;10.33;;
7128;SDS011;3606;52.930;8.644;2022-08-07T02:30:31;13.60;;;9.77;;
7128;SDS011;3606;52.930;8.644;2022-08-07T02:32:58;14.70;;;10.37;;
7128;SDS011;3606;52.930;8.644;2022-08-07T02:35:25;15.43;;;10.23;;
7128;SDS011;3606;52.930;8.644;2022-08-07T02:37:54;13.07;;;9.37;;
7128;SDS011;3606;52.930;8.644;2022-08-07T02:40:22;13.70;;;10.23;;
7128;SDS011;3606;52.930;8.644;2022-08-07T02:42:48;13.83;;;9.77;;
7128;SDS011;3606;52.930;8.644;2022-08-07T02:45:15;14.13;;;10.27;;
7128;SDS011;3606;52.930;8.644;2022-08-07T02:47:43;13.90;;;9.90;;
7128;SDS011;3606;52.930;8.644;2022-08-07T02:50:09;16.37;;;10.47;;
7128;SDS011;3606;52.930;8.644;2022-08-07T02:55:09;14.57;;;10.30;;
7128;SDS011;3606;52.930;8.644;2022-08-07T02:57:42;13.83;;;9.37;;
7128;SDS011;3606;52.930;8.644;2022-08-07T03:00:10;13.83;;;9.77;;
7128;SDS011;3606;52.930;8.644;2022-08-07T03:02:38;14.87;;;9.90;;
7128;SDS011;3606;52.930;8.644;2022-08-07T03:05:07;16.33;;;10.20;;
7128;SDS011;3606;52.930;8.644;2022-08-07T03:07:35;12.67;;;9.13;;
7128;SDS011;3606;52.930;8.644;2022-08-07T03:10:01;14.97;;;9.97;;
7128;SDS011;3606;52.930;8.644;2022-08-07T03:12:27;14.70;;;9.97;;
7128;SDS011;3606;52.930;8.644;2022-08-07T03:14:53;14.13;;;9.10;;
7128;SDS011;3606;52.930;8.644;2022-08-07T03:17:20;14.40;;;9.63;;
7128;SDS011;3606;52.930;8.644;2022-08-07T03:19:46;14.47;;;9.57;;
7128;SDS011;3606;52.930;8.644;2022-08-07T03:22:13;13.33;;;9.47;;
7128;SDS011;3606;52.930;8.644;2022-08-07T03:24:41;13.77;;;9.50;;
7128;SDS011;3606;52.930;8.644;2022-08-07T03:27:07;13.37;;;9.03;;
7128;SDS011;3606;52.930;8.644;2022-08-07T03:29:34;13.53;;;9.33;;
7128;SDS011;3606;52.930;8.644;2022-08-07T03:32:04;16.33;;;9.60;;
7128;SDS011;3606;52.930;8.644;2022-08-07T03:34:32;13.17;;;9.50;;
7128;SDS011;3606;52.930;8.644;2022-08-07T03:37:00;12.70;;;8.90;;
7128;SDS011;3606;52.930;8.644;2022-08-07T03:39:28;12.37;;;8.70;;
7128;SDS011;3606;52.930;8.644;2022-08-07T03:41:57;12.17;;;8.67;;
7128;SDS011;3606;52.930;8.644;2022-08-07T03:44:23;13.50;;;9.23;;
7128;SDS011;3606;52.930;8.644;2022-08-07T03:46:49;13.07;;;8.47;;
7128;SDS011;3606;52.930;8.644;2022-08-07T03:49:15;10.57;;;8.20;;
7128;SDS011;3606;52.930;8.644;2022-08-07T03:51:41;12.20;;;8.77;;
7128;SDS011;3606;52.930;8.644;2022-08-07T03:54:07;12.60;;;8.33;;
7128;SDS011;3606;52.930;8.644;2022-08-07T03:56:33;12.27;;;8.40;;
7128;SDS011;3606;52.930;8.644;2022-08-07T03:59:01;12.27;;;8.57;;
7128;SDS011;3606;52.930;8.644;2022-08-07T04:01:28;14.23;;;9.10;;
7128;SDS011;3606;52.930;8.644;2022-08-07T04:03:55;14.97;;;9.20;;
7128;SDS011;3606;52.930;8.644;2022-08-07T04:06:20;14.63;;;8.73;;
7128;SDS011;3606;52.930;8.644;2022-08-07T04:08:46;11.07;;;8.33;;
7128;SDS011;3606;52.930;8.644;2022-08-07T04:11:13;12.83;;;8.83;;
7128;SDS011;3606;52.930;8.644;2022-08-07T04:13:39;11.17;;;8.20;;
7128;SDS011;3606;52.930;8.644;2022-08-07T04:16:05;12.00;;;8.67;;
7128;SDS011;3606;52.930;8.644;2022-08-07T04:18:31;14.67;;;9.37;;
7128;SDS011;3606;52.930;8.644;2022-08-07T04:20:57;12.83;;;9.30;;
7128;SDS011;3606;52.930;8.644;2022-08-07T04:23:23;14.00;;;9.10;;
7128;SDS011;3606;52.930;8.644;2022-08-07T04:25:49;11.70;;;9.23;;
7128;SDS011;3606;52.930;8.644;2022-08-07T04:28:17;14.57;;;10.00;;
7128;SDS011;3606;52.930;8.644;2022-08-07T04:30:46;17.47;;;10.23;;
7128;SDS011;3606;52.930;8.644;2022-08-07T04:33:13;15.03;;;10.03;;
7128;SDS011;3606;52.930;8.644;2022-08-07T04:35:39;13.03;;;9.57;;
7128;SDS011;3606;52.930;8.644;2022-08-07T04:38:05;13.40;;;9.33;;
7128;SDS011;3606;52.930;8.644;2022-08-07T04:40:32;15.87;;;10.87;;
7128;SDS011;3606;52.930;8.644;2022-08-07T04:43:08;17.13;;;10.17;;
7128;SDS011;3606;52.930;8.644;2022-08-07T04:54:13;15.73;;;10.67;;
7128;SDS011;3606;52.930;8.644;2022-08-07T04:59:33;15.37;;;10.00;;
7128;SDS011;3606;52.930;8.644;2022-08-07T05:02:13;15.23;;;10.00;;
7128;SDS011;3606;52.930;8.644;2022-08-07T05:04:45;15.03;;;9.77;;
7128;SDS011;3606;52.930;8.644;2022-08-07T05:07:40;12.73;;;9.07;;
7128;SDS011;3606;52.930;8.644;2022-08-07T05:10:20;12.70;;;9.07;;
7128;SDS011;3606;52.930;8.644;2022-08-07T05:12:55;12.47;;;8.83;;
7128;SDS011;3606;52.930;8.644;2022-08-07T05:15:25;16.47;;;9.50;;
7128;SDS011;3606;52.930;8.644;2022-08-07T05:18:08;14.70;;;9.63;;
7128;SDS011;3606;52.930;8.644;2022-08-07T05:20:41;13.07;;;9.83;;
7128;SDS011;3606;52.930;8.644;2022-08-07T05:23:11;15.07;;;10.03;;
7128;SDS011;3606;52.930;8.644;2022-08-07T05:25:40;14.50;;;10.07;;
7128;SDS011;3606;52.930;8.644;2022-08-07T05:28:07;12.33;;;8.90;;
7128;SDS011;3606;52.930;8.644;2022-08-07T05:30:34;16.27;;;9.93;;
7128;SDS011;3606;52.930;8.644;2022-08-07T05:33:02;13.30;;;9.80;;
7128;SDS011;3606;52.930;8.644;2022-08-07T05:35:32;17.33;;;10.20;;
7128;SDS011;3606;52.930;8.644;2022-08-07T05:37:59;15.77;;;10.73;;
7128;SDS011;3606;52.930;8.644;2022-08-07T05:40:26;15.00;;;10.60;;
7128;SDS011;3606;52.930;8.644;2022-08-07T05:42:53;15.63;;;10.97;;
7128;SDS011;3606;52.930;8.644;2022-08-07T05:45:19;14.20;;;10.93;;
7128;SDS011;3606;52.930;8.644;2022-08-07T05:47:45;17.13;;;11.17;;
7128;SDS011;3606;52.930;8.644;2022-08-07T05:50:11;16.27;;;10.27;;
7128;SDS011;3606;52.930;8.644;2022-08-07T05:52:38;15.93;;;11.27;;
7128;SDS011;3606;52.930;8.644;2022-08-07T05:55:04;14.83;;;10.70;;
7128;SDS011;3606;52.930;8.644;2022-08-07T05:57:31;12.03;;;9.37;;
7128;SDS011;3606;52.930;8.644;2022-08-07T05:59:59;11.17;;;9.17;;
7128;SDS011;3606;52.930;8.644;2022-08-07T06:02:26;12.97;;;9.00;;
7128;SDS011;3606;52.930;8.644;2022-08-07T06:04:54;10.87;;;8.80;;
7128;SDS011;3606;52.930;8.644;2022-08-07T06:07:23;10.03;;;8.80;;
7128;SDS011;3606;52.930;8.644;2022-08-07T06:09:49;11.73;;;8.23;;
7128;SDS011;3606;52.930;8.644;2022-08-07T06:12:15;10.47;;;8.53;;
7128;SDS011;3606;52.930;8.644;2022-08-07T06:14:41;9.37;;;7.40;;
7128;SDS011;3606;52.930;8.644;2022-08-07T06:17:07;8.73;;;6.97;;
7128;SDS011;3606;52.930;8.644;2022-08-07T06:19:34;7.37;;;6.37;;
7128;SDS011;3606;52.930;8.644;2022-08-07T06:22:00;9.10;;;6.57;;
7128;SDS011;3606;52.930;8.644;2022-08-07T06:24:26;10.43;;;6.70;;
7128;SDS011;3606;52.930;8.644;2022-08-07T06:26:53;7.20;;;6.13;;
7128;SDS011;3606;52.930;8.644;2022-08-07T06:29:18;7.73;;;6.10;;
7128;SDS011;3606;52.930;8.644;2022-08-07T06:31:49;11.03;;;6.17;;
7128;SDS011;3606;52.930;8.644;2022-08-07T06:34:15;6.23;;;5.47;;
7128;SDS011;3606;52.930;8.644;2022-08-07T06:36:41;6.17;;;5.07;;
7128;SDS011;3606;52.930;8.644;2022-08-07T06:39:06;7.97;;;6.30;;
7128;SDS011;3606;52.930;8.644;2022-08-07T06:41:34;6.67;;;6.00;;
7128;SDS011;3606;52.930;8.644;2022-08-07T06:44:06;7.90;;;6.27;;
7128;SDS011;3606;52.930;8.644;2022-08-07T06:46:33;8.90;;;6.27;;
7128;SDS011;3606;52.930;8.644;2022-08-07T06:48:59;8.00;;;5.82;;
7128;SDS011;3606;52.930;8.644;2022-08-07T06:51:26;5.35;;;4.85;;
7128;SDS011;3606;52.930;8.644;2022-08-07T06:53:53;6.05;;;5.07;;
7128;SDS011;3606;52.930;8.644;2022-08-07T06:56:21;6.18;;;5.05;;
7128;SDS011;3606;52.930;8.644;2022-08-07T06:59:07;6.68;;;5.38;;
7128;SDS011;3606;52.930;8.644;2022-08-07T07:01:34;5.68;;;4.97;;
7128;SDS011;3606;52.930;8.644;2022-08-07T07:04:02;6.43;;;4.88;;
7128;SDS011;3606;52.930;8.644;2022-08-07T07:06:30;8.40;;;5.78;;
7128;SDS011;3606;52.930;8.644;2022-08-07T07:09:14;6.40;;;4.53;;
7128;SDS011;3606;52.930;8.644;2022-08-07T07:11:44;5.50;;;5.00;;
7128;SDS011;3606;52.930;8.644;2022-08-07T07:14:21;6.65;;;5.63;;
7128;SDS011;3606;52.930;8.644;2022-08-07T07:16:50;7.45;;;5.15;;
7128;SDS011;3606;52.930;8.644;2022-08-07T07:19:23;5.00;;;4.22;;
7128;SDS011;3606;52.930;8.644;2022-08-07T07:21:52;6.75;;;4.63;;
7128;SDS011;3606;52.930;8.644;2022-08-07T07:24:19;6.60;;;5.32;;
7128;SDS011;3606;52.930;8.644;2022-08-07T07:26:45;5.57;;;4.90;;
7128;SDS011;3606;52.930;8.644;2022-08-07T07:29:12;4.88;;;4.47;;
7128;SDS011;3606;52.930;8.644;2022-08-07T07:31:41;4.50;;;4.10;;
7128;SDS011;3606;52.930;8.644;2022-08-07T07:34:12;6.35;;;4.80;;
7128;SDS011;3606;52.930;8.644;2022-08-07T07:36:41;6.82;;;4.68;;
7128;SDS011;3606;52.930;8.644;2022-08-07T07:39:09;5.18;;;4.65;;
7128;SDS011;3606;52.930;8.644;2022-08-07T07:41:36;6.32;;;4.47;;
7128;SDS011;3606;52.930;8.644;2022-08-07T07:44:03;4.80;;;4.30;;
7128;SDS011;3606;52.930;8.644;2022-08-07T07:46:33;5.97;;;4.90;;
7128;SDS011;3606;52.930;8.644;2022-08-07T07:49:00;5.80;;;4.38;;
7128;SDS011;3606;52.930;8.644;2022-08-07T07:51:27;5.95;;;4.22;;
7128;SDS011;3606;52.930;8.644;2022-08-07T07:53:54;5.15;;;4.35;;
7128;SDS011;3606;52.930;8.644;2022-08-07T07:56:22;5.10;;;4.38;;
7128;SDS011;3606;52.930;8.644;2022-08-07T07:58:48;5.22;;;4.38;;
7128;SDS011;3606;52.930;8.644;2022-08-07T08:01:15;5.13;;;4.60;;
7128;SDS011;3606;52.930;8.644;2022-08-07T08:03:42;5.00;;;3.72;;
7128;SDS011;3606;52.930;8.644;2022-08-07T08:06:08;6.40;;;4.22;;
7128;SDS011;3606;52.930;8.644;2022-08-07T08:08:35;4.28;;;3.88;;
7128;SDS011;3606;52.930;8.644;2022-08-07T08:11:05;5.05;;;4.25;;
7128;SDS011;3606;52.930;8.644;2022-08-07T08:13:35;5.25;;;4.57;;
7128;SDS011;3606;52.930;8.644;2022-08-07T08:16:07;5.85;;;4.18;;
7128;SDS011;3606;52.930;8.644;2022-08-07T08:18:34;4.90;;;4.38;;
7128;SDS011;3606;52.930;8.644;2022-08-07T08:21:01;5.47;;;4.55;;
7128;SDS011;3606;52.930;8.644;2022-08-07T08:23:32;4.97;;;4.10;;
7128;SDS011;3606;52.930;8.644;2022-08-07T08:26:17;5.28;;;4.78;;
7128;SDS011;3606;52.930;8.644;2022-08-07T08:29:03;5.93;;;4.47;;
7128;SDS011;3606;52.930;8.644;2022-08-07T08:31:32;5.35;;;4.82;;
7128;SDS011;3606;52.930;8.644;2022-08-07T08:34:00;7.00;;;4.18;;
7128;SDS011;3606;52.930;8.644;2022-08-07T08:36:30;4.63;;;4.20;;
7128;SDS011;3606;52.930;8.644;2022-08-07T08:38:58;4.47;;;4.07;;
7128;SDS011;3606;52.930;8.644;2022-08-07T08:43:54;4.72;;;4.22;;
7128;SDS011;3606;52.930;8.644;2022-08-07T08:50:10;5.15;;;3.95;;
7128;SDS011;3606;52.930;8.644;2022-08-07T08:52:36;6.60;;;4.30;;
7128;SDS011;3606;52.930;8.644;2022-08-07T08:55:18;3.95;;;3.60;;
7128;SDS011;3606;52.930;8.644;2022-08-07T08:58:00;4.30;;;3.90;;
7128;SDS011;3606;52.930;8.644;2022-08-07T09:00:50;4.18;;;3.80;;
7128;SDS011;3606;52.930;8.644;2022-08-07T09:03:21;4.47;;;3.88;;
7128;SDS011;3606;52.930;8.644;2022-08-07T09:06:02;4.50;;;4.10;;
7128;SDS011;3606;52.930;8.644;2022-08-07T09:16:59;4.65;;;3.63;;
7128;SDS011;3606;52.930;8.644;2022-08-07T09:22:23;4.70;;;3.72;;
7128;SDS011;3606;52.930;8.644;2022-08-07T09:25:23;3.95;;;3.60;;
7128;SDS011;3606;52.930;8.644;2022-08-07T09:28:00;4.47;;;3.80;;
7128;SDS011;3606;52.930;8.644;2022-08-07T09:30:36;4.45;;;3.97;;
7128;SDS011;3606;52.930;8.644;2022-08-07T09:49:40;4.75;;;3.60;;
7128;SDS011;3606;52.930;8.644;2022-08-07T09:55:24;4.97;;;3.88;;
7128;SDS011;3606;52.930;8.644;2022-08-07T10:00:56;4.00;;;3.60;;
7128;SDS011;3606;52.930;8.644;2022-08-07T10:06:25;3.08;;;2.78;;
7128;SDS011;3606;52.930;8.644;2022-08-07T10:09:12;3.72;;;3.38;;
7128;SDS011;3606;52.930;8.644;2022-08-07T10:12:07;4.38;;;3.55;;
7128;SDS011;3606;52.930;8.644;2022-08-07T10:15:09;5.13;;;3.38;;
7128;SDS011;3606;52.930;8.644;2022-08-07T10:18:10;3.70;;;3.40;;
7128;SDS011;3606;52.930;8.644;2022-08-07T10:31:48;4.75;;;3.22;;
7128;SDS011;3606;52.930;8.644;2022-08-07T10:42:33;5.25;;;2.95;;
7128;SDS011;3606;52.930;8.644;2022-08-07T10:45:02;3.47;;;3.17;;
7128;SDS011;3606;52.930;8.644;2022-08-07T10:50:23;3.00;;;2.72;;
7128;SDS011;3606;52.930;8.644;2022-08-07T10:58:33;4.18;;;2.85;;
7128;SDS011;3606;52.930;8.644;2022-08-07T11:04:13;4.55;;;3.47;;
7128;SDS011;3606;52.930;8.644;2022-08-07T11:09:28;2.95;;;2.60;;
7128;SDS011;3606;52.930;8.644;2022-08-07T11:12:01;2.78;;;2.58;;
7128;SDS011;3606;52.930;8.644;2022-08-07T11:14:43;4.50;;;2.75;;
7128;SDS011;3606;52.930;8.644;2022-08-07T11:17:20;3.72;;;2.72;;
7128;SDS011;3606;52.930;8.644;2022-08-07T11:22:48;4.50;;;3.35;;
7128;SDS011;3606;52.930;8.644;2022-08-07T11:28:05;3.20;;;2.90;;
7128;SDS011;3606;52.930;8.644;2022-08-07T11:33:33;3.22;;;2.50;;
7128;SDS011;3606;52.930;8.644;2022-08-07T11:36:32;2.50;;;2.28;;
7128;SDS011;3606;52.930;8.644;2022-08-07T11:41:43;2.63;;;2.42;;
7128;SDS011;3606;52.930;8.644;2022-08-07T11:44:48;2.85;;;2.50;;
7128;SDS011;3606;52.930;8.644;2022-08-07T11:47:52;2.50;;;2.15;;
7128;SDS011;3606;52.930;8.644;2022-08-07T11:53:25;2.70;;;2.50;;
7128;SDS011;3606;52.930;8.644;2022-08-07T12:04:41;3.15;;;2.60;;
7128;SDS011;3606;52.930;8.644;2022-08-07T12:07:25;3.28;;;2.60;;
7128;SDS011;3606;52.930;8.644;2022-08-07T12:09:57;3.45;;;2.55;;
7128;SDS011;3606;52.930;8.644;2022-08-07T12:12:34;3.47;;;2.47;;
7128;SDS011;3606;52.930;8.644;2022-08-07T12:15:20;2.83;;;2.45;;
7128;SDS011;3606;52.930;8.644;2022-08-07T12:17:48;4.45;;;2.78;;
7128;SDS011;3606;52.930;8.644;2022-08-07T12:20:22;2.60;;;2.40;;
7128;SDS011;3606;52.930;8.644;2022-08-07T12:28:33;2.50;;;2.30;;
7128;SDS011;3606;52.930;8.644;2022-08-07T12:31:10;2.75;;;2.55;;
7128;SDS011;3606;52.930;8.644;2022-08-07T12:33:41;2.58;;;2.38;;
7128;SDS011;3606;52.930;8.644;2022-08-07T12:36:08;3.70;;;2.25;;
7128;SDS011;3606;52.930;8.644;2022-08-07T12:38:35;3.38;;;2.30;;
7128;SDS011;3606;52.930;8.644;2022-08-07T12:41:03;3.17;;;2.35;;
7128;SDS011;3606;52.930;8.644;2022-08-07T12:43:31;5.25;;;2.70;;
7128;SDS011;3606;52.930;8.644;2022-08-07T12:46:12;2.83;;;2.13;;
7128;SDS011;3606;52.930;8.644;2022-08-07T12:51:25;2.53;;;2.22;;
7128;SDS011;3606;52.930;8.644;2022-08-07T12:56:38;2.25;;;1.88;;
7128;SDS011;3606;52.930;8.644;2022-08-07T12:59:08;2.88;;;2.15;;
7128;SDS011;3606;52.930;8.644;2022-08-07T13:12:31;5.03;;;2.60;;
7128;SDS011;3606;52.930;8.644;2022-08-07T13:20:37;3.47;;;2.33;;
7128;SDS011;3606;52.930;8.644;2022-08-07T13:23:09;2.97;;;2.17;;
7128;SDS011;3606;52.930;8.644;2022-08-07T13:25:45;3.28;;;2.40;;
7128;SDS011;3606;52.930;8.644;2022-08-07T13:28:19;2.90;;;2.47;;
7128;SDS011;3606;52.930;8.644;2022-08-07T13:31:00;6.50;;;3.05;;
7128;SDS011;3606;52.930;8.644;2022-08-07T13:36:56;2.72;;;2.53;;
7128;SDS011;3606;52.930;8.644;2022-08-07T13:39:30;7.07;;;2.80;;
7128;SDS011;3606;52.930;8.644;2022-08-07T13:42:01;3.80;;;2.75;;
7128;SDS011;3606;52.930;8.644;2022-08-07T13:44:30;2.90;;;2.45;;
7128;SDS011;3606;52.930;8.644;2022-08-07T13:46:58;3.67;;;2.45;;
7128;SDS011;3606;52.930;8.644;2022-08-07T13:49:27;4.10;;;3.30;;
7128;SDS011;3606;52.930;8.644;2022-08-07T13:52:01;3.25;;;2.85;;
7128;SDS011;3606;52.930;8.644;2022-08-07T13:54:29;3.88;;;2.78;;
7128;SDS011;3606;52.930;8.644;2022-08-07T13:56:57;3.05;;;2.75;;
7128;SDS011;3606;52.930;8.644;2022-08-07T13:59:25;3.20;;;2.70;;
7128;SDS011;3606;52.930;8.644;2022-08-07T14:01:58;3.88;;;2.88;;
7128;SDS011;3606;52.930;8.644;2022-08-07T14:04:39;2.72;;;2.40;;
7128;SDS011;3606;52.930;8.644;2022-08-07T14:07:09;4.63;;;2.30;;
7128;SDS011;3606;52.930;8.644;2022-08-07T14:09:36;3.17;;;2.60;;
7128;SDS011;3606;52.930;8.644;2022-08-07T14:12:04;2.85;;;2.58;;
7128;SDS011;3606;52.930;8.644;2022-08-07T14:14:59;3.33;;;2.33;;
7128;SDS011;3606;52.930;8.644;2022-08-07T14:17:29;3.47;;;2.70;;
7128;SDS011;3606;52.930;8.644;2022-08-07T14:20:00;2.75;;;2.55;;
7128;SDS011;3606;52.930;8.644;2022-08-07T14:22:32;2.88;;;2.30;;
7128;SDS011;3606;52.930;8.644;2022-08-07T14:25:00;3.38;;;2.70;;
7128;SDS011;3606;52.930;8.644;2022-08-07T14:27:36;4.00;;;2.55;;
7128;SDS011;3606;52.930;8.644;2022-08-07T14:30:08;4.15;;;2.85;;
7128;SDS011;3606;52.930;8.644;2022-08-07T14:32:43;4.82;;;3.50;;
7128;SDS011;3606;52.930;8.644;2022-08-07T14:35:21;3.72;;;2.72;;
7128;SDS011;3606;52.930;8.644;2022-08-07T14:37:50;4.40;;;3.00;;
7128;SDS011;3606;52.930;8.644;2022-08-07T14:40:20;4.07;;;2.50;;
7128;SDS011;3606;52.930;8.644;2022-08-07T14:42:55;4.30;;;2.63;;
7128;SDS011;3606;52.930;8.644;2022-08-07T14:45:24;3.50;;;2.50;;
7128;SDS011;3606;52.930;8.644;2022-08-07T14:48:21;3.55;;;2.58;;
7128;SDS011;3606;52.930;8.644;2022-08-07T14:50:52;3.00;;;2.70;;
7128;SDS011;3606;52.930;8.644;2022-08-07T14:53:20;4.38;;;2.97;;
7128;SDS011;3606;52.930;8.644;2022-08-07T14:55:48;5.45;;;2.90;;
7128;SDS011;3606;52.930;8.644;2022-08-07T14:58:15;4.63;;;2.97;;
7128;SDS011;3606;52.930;8.644;2022-08-07T15:00:48;5.25;;;3.10;;
7128;SDS011;3606;52.930;8.644;2022-08-07T15:03:15;4.38;;;2.90;;
7128;SDS011;3606;52.930;8.644;2022-08-07T15:05:46;3.75;;;2.95;;
7128;SDS011;3606;52.930;8.644;2022-08-07T15:08:21;2.80;;;2.50;;
7128;SDS011;3606;52.930;8.644;2022-08-07T15:11:05;4.60;;;3.13;;
7128;SDS011;3606;52.930;8.644;2022-08-07T15:13:34;5.05;;;2.60;;
7128;SDS011;3606;52.930;8.644;2022-08-07T15:16:10;6.40;;;3.00;;
7128;SDS011;3606;52.930;8.644;2022-08-07T15:18:49;5.87;;;3.27;;
7128;SDS011;3606;52.930;8.644;2022-08-07T15:21:17;4.50;;;3.20;;
7128;SDS011;3606;52.930;8.644;2022-08-07T15:23:48;2.93;;;2.67;;
7128;SDS011;3606;52.930;8.644;2022-08-07T15:26:18;4.28;;;3.03;;
7128;SDS011;3606;52.930;8.644;2022-08-07T15:28:52;3.25;;;2.95;;
7128;SDS011;3606;52.930;8.644;2022-08-07T15:31:20;4.07;;;3.42;;
7128;SDS011;3606;52.930;8.644;2022-08-07T15:33:48;6.32;;;4.68;;
7128;SDS011;3606;52.930;8.644;2022-08-07T15:36:13;4.72;;;3.38;;
7128;SDS011;3606;52.930;8.644;2022-08-07T15:38:40;3.78;;;2.90;;
7128;SDS011;3606;52.930;8.644;2022-08-07T15:41:10;4.18;;;3.08;;
7128;SDS011;3606;52.930;8.644;2022-08-07T15:43:41;4.70;;;3.28;;
7128;SDS011;3606;52.930;8.644;2022-08-07T15:46:26;3.25;;;2.95;;
7128;SDS011;3606;52.930;8.644;2022-08-07T15:48:54;4.03;;;3.00;;
7128;SDS011;3606;52.930;8.644;2022-08-07T15:51:23;3.20;;;2.90;;
7128;SDS011;3606;52.930;8.644;2022-08-07T15:53:52;3.78;;;3.08;;
7128;SDS011;3606;52.930;8.644;2022-08-07T15:56:22;4.97;;;3.58;;
7128;SDS011;3606;52.930;8.644;2022-08-07T15:58:57;5.85;;;3.20;;
7128;SDS011;3606;52.930;8.644;2022-08-07T16:01:26;5.93;;;2.90;;
7128;SDS011;3606;52.930;8.644;2022-08-07T16:03:58;5.13;;;3.00;;
7128;SDS011;3606;52.930;8.644;2022-08-07T16:06:32;3.97;;;3.10;;
7128;SDS011;3606;52.930;8.644;2022-08-07T16:09:31;3.50;;;3.00;;
7128;SDS011;3606;52.930;8.644;2022-08-07T16:12:08;3.23;;;2.80;;
7128;SDS011;3606;52.930;8.644;2022-08-07T16:14:58;5.10;;;2.90;;
7128;SDS011;3606;52.930;8.644;2022-08-07T16:20:36;2.70;;;2.50;;
7128;SDS011;3606;52.930;8.644;2022-08-07T16:23:15;3.33;;;3.00;;
7128;SDS011;3606;52.930;8.644;2022-08-07T16:25:58;5.97;;;3.10;;
7128;SDS011;3606;52.930;8.644;2022-08-07T16:34:21;4.83;;;2.80;;
7128;SDS011;3606;52.930;8.644;2022-08-07T16:37:16;4.17;;;3.40;;
7128;SDS011;3606;52.930;8.644;2022-08-07T16:50:32;3.30;;;3.00;;
7128;SDS011;3606;52.930;8.644;2022-08-07T16:53:13;3.50;;;3.20;;
7128;SDS011;3606;52.930;8.644;2022-08-07T16:56:01;3.40;;;3.10;;
7128;SDS011;3606;52.930;8.644;2022-08-07T17:04:54;5.63;;;3.70;;
7128;SDS011;3606;52.930;8.644;2022-08-07T17:07:22;3.83;;;3.40;;
7128;SDS011;3606;52.930;8.644;2022-08-07T17:10:05;4.63;;;3.30;;
7128;SDS011;3606;52.930;8.644;2022-08-07T17:15:56;4.87;;;3.93;;
7128;SDS011;3606;52.930;8.644;2022-08-07T17:18:48;4.33;;;3.20;;
7128;SDS011;3606;52.930;8.644;2022-08-07T17:21:27;5.77;;;4.07;;
7128;SDS011;3606;52.930;8.644;2022-08-07T17:27:01;6.93;;;3.77;;
7128;SDS011;3606;52.930;8.644;2022-08-07T17:35:14;4.10;;;3.70;;
7128;SDS011;3606;52.930;8.644;2022-08-07T17:38:00;8.60;;;5.57;;
7128;SDS011;3606;52.930;8.644;2022-08-07T17:40:42;5.17;;;4.37;;
7128;SDS011;3606;52.930;8.644;2022-08-07T17:43:33;5.10;;;4.10;;
7128;SDS011;3606;52.930;8.644;2022-08-07T17:46:13;8.63;;;5.80;;
7128;SDS011;3606;52.930;8.644;2022-08-07T17:51:43;4.50;;;4.03;;
7128;SDS011;3606;52.930;8.644;2022-08-07T17:59:40;4.67;;;3.83;;
7128;SDS011;3606;52.930;8.644;2022-08-07T18:02:23;6.60;;;3.97;;
7128;SDS011;3606;52.930;8.644;2022-08-07T18:05:04;5.47;;;3.50;;
7128;SDS011;3606;52.930;8.644;2022-08-07T18:15:47;4.30;;;3.63;;
7128;SDS011;3606;52.930;8.644;2022-08-07T18:18:16;3.50;;;3.20;;
7128;SDS011;3606;52.930;8.644;2022-08-07T18:20:45;4.07;;;3.10;;
7128;SDS011;3606;52.930;8.644;2022-08-07T18:23:26;4.60;;;3.10;;
7128;SDS011;3606;52.930;8.644;2022-08-07T18:26:13;4.80;;;3.30;;
7128;SDS011;3606;52.930;8.644;2022-08-07T18:28:54;4.70;;;3.50;;
7128;SDS011;3606;52.930;8.644;2022-08-07T18:37:22;3.57;;;3.23;;
7128;SDS011;3606;52.930;8.644;2022-08-07T18:42:48;4.33;;;3.50;;
7128;SDS011;3606;52.930;8.644;2022-08-07T18:45:43;3.73;;;3.40;;
7128;SDS011;3606;52.930;8.644;2022-08-07T18:48:21;6.67;;;3.70;;
7128;SDS011;3606;52.930;8.644;2022-08-07T18:50:56;4.47;;;3.50;;
7128;SDS011;3606;52.930;8.644;2022-08-07T18:53:30;4.43;;;3.50;;
7128;SDS011;3606;52.930;8.644;2022-08-07T18:56:11;4.00;;;3.40;;
7128;SDS011;3606;52.930;8.644;2022-08-07T19:02:00;4.43;;;3.70;;
7128;SDS011;3606;52.930;8.644;2022-08-07T19:04:33;5.60;;;3.80;;